sensor_id;sensor_type;location;lat;lon;timestamp;pressure;altitude;pressure_sealevel;temperature;humidity
20628;BME280;10473;42.734;24.258;2023-04-21T00:02:18;91450.97;;;10.28;71.42
20628;BME280;10473;42.734;24.258;2023-04-21T00:04:45;91455.84;;;10.26;71.57
20628;BME280;10473;42.734;24.258;2023-04-21T00:07:14;91453.63;;;10.28;71.35
20628;BME280;10473;42.734;24.258;2023-04-21T00:09:42;91447.53;;;10.24;71.72
20628;BME280;10473;42.734;24.258;2023-04-21T00:12:10;91448.63;;;10.09;71.97
20628;BME280;10473;42.734;24.258;2023-04-21T00:14:37;91445.97;;;10.05;72.71
20628;BME280;10473;42.734;24.258;2023-04-21T00:17:06;91442.09;;;9.96;72.76
20628;BME280;10473;42.734;24.258;2023-04-21T00:19:34;91450.81;;;10.03;72.35
20628;BME280;10473;42.734;24.258;2023-04-21T00:22:02;91439.03;;;9.87;72.52
20628;BME280;10473;42.734;24.258;2023-04-21T00:24:29;91440.56;;;9.88;72.47
20628;BME280;10473;42.734;24.258;2023-04-21T00:26:57;91440.59;;;9.95;71.98
20628;BME280;10473;42.734;24.258;2023-04-21T00:29:25;91431.88;;;9.87;72.53
20628;BME280;10473;42.734;24.258;2023-04-21T00:31:52;91427.72;;;9.93;71.77
20628;BME280;10473;42.734;24.258;2023-04-21T00:34:21;91426.22;;;9.89;72.02
20628;BME280;10473;42.734;24.258;2023-04-21T00:36:51;91426.22;;;9.89;71.83
20628;BME280;10473;42.734;24.258;2023-04-21T00:39:19;91429.22;;;9.84;71.42
20628;BME280;10473;42.734;24.258;2023-04-21T00:41:47;91429.56;;;9.79;71.74
20628;BME280;10473;42.734;24.258;2023-04-21T00:44:14;91414.69;;;9.57;72.15
20628;BME280;10473;42.734;24.258;2023-04-21T00:46:42;91413.56;;;9.58;72.41
20628;BME280;10473;42.734;24.258;2023-04-21T00:49:10;91409.41;;;9.57;71.88
20628;BME280;10473;42.734;24.258;2023-04-21T00:51:39;91411.63;;;9.48;71.98
20628;BME280;10473;42.734;24.258;2023-04-21T00:54:08;91416.53;;;9.42;72.43
20628;BME280;10473;42.734;24.258;2023-04-21T00:56:38;91409.38;;;9.50;71.63
20628;BME280;10473;42.734;24.258;2023-04-21T00:59:05;91412.03;;;9.46;71.56
20628;BME280;10473;42.734;24.258;2023-04-21T01:01:33;91416.84;;;9.34;71.95
20628;BME280;10473;42.734;24.258;2023-04-21T01:04:02;91418.75;;;9.37;71.78
20628;BME280;10473;42.734;24.258;2023-04-21T01:06:31;91404.38;;;9.34;72.31
20628;BME280;10473;42.734;24.258;2023-04-21T01:09:01;91418.38;;;9.35;71.39
20628;BME280;10473;42.734;24.258;2023-04-21T01:11:29;91421.34;;;9.30;71.61
20628;BME280;10473;42.734;24.258;2023-04-21T01:13:57;91414.56;;;9.29;71.41
20628;BME280;10473;42.734;24.258;2023-04-21T01:16:26;91411.25;;;8.92;72.54
20628;BME280;10473;42.734;24.258;2023-04-21T01:18:54;91420.16;;;8.70;73.98
20628;BME280;10473;42.734;24.258;2023-04-21T01:21:22;91413.91;;;8.92;72.73
20628;BME280;10473;42.734;24.258;2023-04-21T01:23:51;91420.25;;;8.84;72.86
20628;BME280;10473;42.734;24.258;2023-04-21T01:26:19;91404.38;;;8.80;72.92
20628;BME280;10473;42.734;24.258;2023-04-21T01:28:48;91408.81;;;8.69;73.58
20628;BME280;10473;42.734;24.258;2023-04-21T01:31:16;91404.38;;;8.80;72.46
20628;BME280;10473;42.734;24.258;2023-04-21T01:33:46;91403.38;;;8.52;73.46
20628;BME280;10473;42.734;24.258;2023-04-21T01:36:15;91401.78;;;8.44;74.52
20628;BME280;10473;42.734;24.258;2023-04-21T01:38:44;91400.81;;;8.59;73.76
20628;BME280;10473;42.734;24.258;2023-04-21T01:41:13;91399.59;;;8.49;73.80
20628;BME280;10473;42.734;24.258;2023-04-21T01:43:41;91393.44;;;8.35;75.28
20628;BME280;10473;42.734;24.258;2023-04-21T01:46:08;91392.47;;;8.53;74.25
20628;BME280;10473;42.734;24.258;2023-04-21T01:48:37;91391.72;;;8.56;73.33
20628;BME280;10473;42.734;24.258;2023-04-21T01:51:05;91399.97;;;8.51;74.27
20628;BME280;10473;42.734;24.258;2023-04-21T01:53:33;91400.75;;;8.52;74.25
20628;BME280;10473;42.734;24.258;2023-04-21T01:56:01;91403.44;;;8.59;73.76
20628;BME280;10473;42.734;24.258;2023-04-21T01:58:32;91400.06;;;8.58;74.00
20628;BME280;10473;42.734;24.258;2023-04-21T02:00:59;91401.59;;;8.63;74.22
20628;BME280;10473;42.734;24.258;2023-04-21T02:03:27;91394.47;;;8.67;73.64
20628;BME280;10473;42.734;24.258;2023-04-21T02:05:55;91399.72;;;8.63;73.94
20628;BME280;10473;42.734;24.258;2023-04-21T02:08:22;91398.81;;;8.49;74.76
20628;BME280;10473;42.734;24.258;2023-04-21T02:10:50;91393.31;;;8.64;74.26
20628;BME280;10473;42.734;24.258;2023-04-21T02:13:18;91392.97;;;8.69;74.25
20628;BME280;10473;42.734;24.258;2023-04-21T02:15:47;91385.56;;;8.42;75.86
20628;BME280;10473;42.734;24.258;2023-04-21T02:18:14;91388.41;;;8.63;75.75
20628;BME280;10473;42.734;24.258;2023-04-21T02:20:43;91384.28;;;8.69;75.00
20628;BME280;10473;42.734;24.258;2023-04-21T02:23:13;91389.97;;;8.71;75.20
20628;BME280;10473;42.734;24.258;2023-04-21T02:25:41;91390.72;;;8.71;75.44
20628;BME280;10473;42.734;24.258;2023-04-21T02:28:08;91377.97;;;8.80;74.83
20628;BME280;10473;42.734;24.258;2023-04-21T02:30:36;91381.03;;;8.86;74.90
20628;BME280;10473;42.734;24.258;2023-04-21T02:33:05;91388.94;;;8.82;75.29
20628;BME280;10473;42.734;24.258;2023-04-21T02:35:32;91379.59;;;8.95;75.02
20628;BME280;10473;42.734;24.258;2023-04-21T02:38:00;91396.19;;;8.92;74.73
20628;BME280;10473;42.734;24.258;2023-04-21T02:40:34;91392.75;;;8.88;75.07
20628;BME280;10473;42.734;24.258;2023-04-21T02:43:01;91385.53;;;8.82;74.99
20628;BME280;10473;42.734;24.258;2023-04-21T02:45:30;91397.34;;;8.95;75.47
20628;BME280;10473;42.734;24.258;2023-04-21T02:47:58;91400.66;;;8.85;75.33
20628;BME280;10473;42.734;24.258;2023-04-21T02:50:27;91393.09;;;8.83;75.58
20628;BME280;10473;42.734;24.258;2023-04-21T02:52:55;91403.78;;;8.97;75.04
20628;BME280;10473;42.734;24.258;2023-04-21T02:55:23;91399.22;;;8.94;75.29
20628;BME280;10473;42.734;24.258;2023-04-21T02:57:51;91380.28;;;8.89;75.38
20628;BME280;10473;42.734;24.258;2023-04-21T03:00:22;91395.47;;;8.99;75.17
20628;BME280;10473;42.734;24.258;2023-04-21T03:02:49;91390.22;;;9.02;74.91
20628;BME280;10473;42.734;24.258;2023-04-21T03:05:18;91387.88;;;8.94;75.19
20628;BME280;10473;42.734;24.258;2023-04-21T03:07:47;91391.97;;;8.88;74.88
20628;BME280;10473;42.734;24.258;2023-04-21T03:10:16;91395.47;;;8.99;74.79
20628;BME280;10473;42.734;24.258;2023-04-21T03:12:44;91391.69;;;8.96;74.55
20628;BME280;10473;42.734;24.258;2023-04-21T03:15:12;91399.19;;;8.91;74.28
20628;BME280;10473;42.734;24.258;2023-04-21T03:17:40;91396.13;;;8.85;74.56
20628;BME280;10473;42.734;24.258;2023-04-21T03:20:09;91389.97;;;8.71;74.45
20628;BME280;10473;42.734;24.258;2023-04-21T03:22:38;91404.34;;;8.77;74.64
20628;BME280;10473;42.734;24.258;2023-04-21T03:25:07;91401.28;;;8.71;74.85
20628;BME280;10473;42.734;24.258;2023-04-21T03:27:35;91395.13;;;8.57;75.16
20628;BME280;10473;42.734;24.258;2023-04-21T03:30:04;91397.44;;;8.62;75.72
20628;BME280;10473;42.734;24.258;2023-04-21T03:32:32;91394.84;;;8.69;75.06
20628;BME280;10473;42.734;24.258;2023-04-21T03:34:59;91396.06;;;8.75;74.98
20628;BME280;10473;42.734;24.258;2023-04-21T03:37:27;91401.34;;;8.75;75.50
20628;BME280;10473;42.734;24.258;2023-04-21T03:39:55;91399.06;;;8.77;75.15
20628;BME280;10473;42.734;24.258;2023-04-21T03:42:24;91403.66;;;8.83;75.30
20628;BME280;10473;42.734;24.258;2023-04-21T03:44:52;91405.88;;;8.78;75.45
20628;BME280;10473;42.734;24.258;2023-04-21T03:47:20;91413.47;;;8.86;75.80
20628;BME280;10473;42.734;24.258;2023-04-21T03:49:47;91409.00;;;8.94;75.30
20628;BME280;10473;42.734;24.258;2023-04-21T03:52:15;91419.63;;;9.01;75.21
20628;BME280;10473;42.734;24.258;2023-04-21T03:54:42;91420.34;;;8.94;75.33
20628;BME280;10473;42.734;24.258;2023-04-21T03:57:10;91421.16;;;9.02;75.88
20628;BME280;10473;42.734;24.258;2023-04-21T03:59:39;91422.66;;;9.03;75.76
20628;BME280;10473;42.734;24.258;2023-04-21T04:02:07;91421.59;;;9.07;75.74
20628;BME280;10473;42.734;24.258;2023-04-21T04:04:35;91415.97;;;9.16;75.90
20628;BME280;10473;42.734;24.258;2023-04-21T04:07:02;91426.19;;;9.21;75.31
20628;BME280;10473;42.734;24.258;2023-04-21T04:09:32;91431.09;;;9.19;74.92
20628;BME280;10473;42.734;24.258;2023-04-21T04:12:00;91423.53;;;9.14;75.16
20628;BME280;10473;42.734;24.258;2023-04-21T04:14:28;91430.00;;;9.27;74.79
20628;BME280;10473;42.734;24.258;2023-04-21T04:16:58;91433.44;;;9.27;75.01
20628;BME280;10473;42.734;24.258;2023-04-21T04:19:29;91443.56;;;9.22;74.96
20628;BME280;10473;42.734;24.258;2023-04-21T04:21:58;91439.44;;;9.28;74.67
20628;BME280;10473;42.734;24.258;2023-04-21T04:24:27;91441.72;;;9.26;74.48
20628;BME280;10473;42.734;24.258;2023-04-21T04:26:56;91442.06;;;9.21;74.94
20628;BME280;10473;42.734;24.258;2023-04-21T04:29:25;91450.88;;;9.39;74.41
20628;BME280;10473;42.734;24.258;2023-04-21T04:31:53;91450.91;;;9.42;74.31
20628;BME280;10473;42.734;24.258;2023-04-21T04:34:22;91454.59;;;9.31;74.99
20628;BME280;10473;42.734;24.258;2023-04-21T04:36:50;91452.38;;;9.36;75.34
20628;BME280;10473;42.734;24.258;2023-04-21T04:39:18;91458.41;;;9.40;75.28
20628;BME280;10473;42.734;24.258;2023-04-21T04:41:48;91447.88;;;9.44;74.78
20628;BME280;10473;42.734;24.258;2023-04-21T04:44:17;91458.06;;;9.42;74.97
20628;BME280;10473;42.734;24.258;2023-04-21T04:46:45;91448.00;;;9.61;75.11
20628;BME280;10473;42.734;24.258;2023-04-21T04:49:14;91460.16;;;9.73;74.10
20628;BME280;10473;42.734;24.258;2023-04-21T04:51:44;91463.06;;;9.54;75.15
20628;BME280;10473;42.734;24.258;2023-04-21T04:54:11;91454.09;;;9.72;74.42
20628;BME280;10473;42.734;24.258;2023-04-21T04:56:39;91455.69;;;9.87;73.03
20628;BME280;10473;42.734;24.258;2023-04-21T04:59:07;91465.53;;;9.94;72.86
20628;BME280;10473;42.734;24.258;2023-04-21T05:01:34;91463.28;;;9.99;72.19
20628;BME280;10473;42.734;24.258;2023-04-21T05:04:04;91461.41;;;10.03;71.63
20628;BME280;10473;42.734;24.258;2023-04-21T05:06:32;91459.09;;;9.88;72.89
20628;BME280;10473;42.734;24.258;2023-04-21T05:09:01;91462.56;;;10.02;73.19
20628;BME280;10473;42.734;24.258;2023-04-21T05:11:30;91461.09;;;10.08;72.04
20628;BME280;10473;42.734;24.258;2023-04-21T05:13:57;91458.03;;;10.03;71.90
20628;BME280;10473;42.734;24.258;2023-04-21T05:16:25;91458.44;;;10.05;72.31
20628;BME280;10473;42.734;24.258;2023-04-21T05:18:53;91463.38;;;10.13;72.27
20628;BME280;10473;42.734;24.258;2023-04-21T05:21:24;91462.22;;;10.11;71.68
20628;BME280;10473;42.734;24.258;2023-04-21T05:23:53;91461.31;;;9.79;72.58
20628;BME280;10473;42.734;24.258;2023-04-21T05:26:23;91436.00;;;9.78;72.30
20628;BME280;10473;42.734;24.258;2023-04-21T05:28:51;91457.59;;;9.94;72.23
20628;BME280;10473;42.734;24.258;2023-04-21T05:31:25;91450.00;;;9.85;72.08
20628;BME280;10473;42.734;24.258;2023-04-21T05:33:52;91436.75;;;9.82;72.70
20628;BME280;10473;42.734;24.258;2023-04-21T05:36:20;91458.75;;;10.00;71.90
20628;BME280;10473;42.734;24.258;2023-04-21T05:38:50;91464.81;;;10.00;71.88
20628;BME280;10473;42.734;24.258;2023-04-21T05:41:17;91469.44;;;10.10;72.05
20628;BME280;10473;42.734;24.258;2023-04-21T05:43:49;91464.16;;;10.14;71.13
20628;BME280;10473;42.734;24.258;2023-04-21T05:46:17;91461.50;;;10.17;71.28
20628;BME280;10473;42.734;24.258;2023-04-21T05:48:44;91463.41;;;10.20;71.55
20628;BME280;10473;42.734;24.258;2023-04-21T05:51:13;91463.44;;;10.24;70.84
20628;BME280;10473;42.734;24.258;2023-04-21T05:53:42;91456.63;;;10.30;70.59
20628;BME280;10473;42.734;24.258;2023-04-21T05:56:11;91453.94;;;10.12;70.05
20628;BME280;10473;42.734;24.258;2023-04-21T05:58:39;91472.47;;;10.16;70.81
20628;BME280;10473;42.734;24.258;2023-04-21T06:01:08;91467.22;;;10.33;70.60
20628;BME280;10473;42.734;24.258;2023-04-21T06:03:36;91457.03;;;10.39;69.86
20628;BME280;10473;42.734;24.258;2023-04-21T06:06:05;91468.78;;;10.38;69.54
20628;BME280;10473;42.734;24.258;2023-04-21T06:08:33;91462.28;;;10.25;71.03
20628;BME280;10473;42.734;24.258;2023-04-21T06:11:00;91454.41;;;10.42;70.32
20628;BME280;10473;42.734;24.258;2023-04-21T06:13:28;91450.97;;;10.31;69.88
20628;BME280;10473;42.734;24.258;2023-04-21T06:15:56;91454.81;;;10.55;69.07
20628;BME280;10473;42.734;24.258;2023-04-21T06:18:27;91459.78;;;10.67;68.56
20628;BME280;10473;42.734;24.258;2023-04-21T06:20:54;91457.88;;;10.67;69.10
20628;BME280;10473;42.734;24.258;2023-04-21T06:23:22;91443.88;;;10.70;68.38
20628;BME280;10473;42.734;24.258;2023-04-21T06:25:58;91456.00;;;10.82;68.22
20628;BME280;10473;42.734;24.258;2023-04-21T06:28:29;91457.13;;;10.81;69.50
20628;BME280;10473;42.734;24.258;2023-04-21T06:30:58;91467.00;;;10.98;68.65
20628;BME280;10473;42.734;24.258;2023-04-21T06:33:27;91457.53;;;10.86;68.54
20628;BME280;10473;42.734;24.258;2023-04-21T06:35:55;91456.78;;;10.89;67.71
20628;BME280;10473;42.734;24.258;2023-04-21T06:38:23;91464.75;;;11.03;68.25
20628;BME280;10473;42.734;24.258;2023-04-21T06:40:51;91471.56;;;11.18;68.38
20628;BME280;10473;42.734;24.258;2023-04-21T06:43:19;91467.41;;;11.38;66.87
20628;BME280;10473;42.734;24.258;2023-04-21T06:45:47;91462.09;;;11.56;65.61
20628;BME280;10473;42.734;24.258;2023-04-21T06:48:14;91466.25;;;11.60;66.34
20628;BME280;10473;42.734;24.258;2023-04-21T06:50:44;91470.00;;;11.84;66.81
20628;BME280;10473;42.734;24.258;2023-04-21T06:53:11;91472.25;;;11.99;65.26
20628;BME280;10473;42.734;24.258;2023-04-21T06:55:39;91475.66;;;12.07;65.74
20628;BME280;10473;42.734;24.258;2023-04-21T06:58:06;91473.28;;;12.33;65.83
20628;BME280;10473;42.734;24.258;2023-04-21T07:00:34;91469.41;;;12.52;63.34
20628;BME280;10473;42.734;24.258;2023-04-21T07:03:02;91464.41;;;12.64;62.81
20628;BME280;10473;42.734;24.258;2023-04-21T07:05:30;91463.16;;;12.86;64.30
20628;BME280;10473;42.734;24.258;2023-04-21T07:07:59;91460.38;;;13.07;63.95
20628;BME280;10473;42.734;24.258;2023-04-21T07:10:27;91464.53;;;13.12;63.34
20628;BME280;10473;42.734;24.258;2023-04-21T07:12:55;91449.69;;;13.14;62.51
20628;BME280;10473;42.734;24.258;2023-04-21T07:15:23;91460.63;;;13.30;61.70
20628;BME280;10473;42.734;24.258;2023-04-21T07:17:50;91461.63;;;13.47;61.89
20628;BME280;10473;42.734;24.258;2023-04-21T07:20:18;91464.22;;;13.54;62.33
20628;BME280;10473;42.734;24.258;2023-04-21T07:22:46;91457.63;;;13.69;61.89
20628;BME280;10473;42.734;24.258;2023-04-21T07:25:15;91463.84;;;13.92;59.50
20628;BME280;10473;42.734;24.258;2023-04-21T07:27:42;91462.69;;;13.97;58.69
20628;BME280;10473;42.734;24.258;2023-04-21T07:30:11;91460.38;;;13.99;58.41
20628;BME280;10473;42.734;24.258;2023-04-21T07:32:39;91460.75;;;13.97;57.27
20628;BME280;10473;42.734;24.258;2023-04-21T07:35:07;91460.84;;;13.90;57.07
20628;BME280;10473;42.734;24.258;2023-04-21T07:37:38;91468.22;;;14.13;56.14
20628;BME280;10473;42.734;24.258;2023-04-21T07:40:07;91466.22;;;14.24;56.88
20628;BME280;10473;42.734;24.258;2023-04-21T07:42:37;91469.69;;;14.21;56.39
20628;BME280;10473;42.734;24.258;2023-04-21T07:45:05;91466.06;;;14.38;55.48
20628;BME280;10473;42.734;24.258;2023-04-21T07:47:33;91470.25;;;14.39;54.38
20628;BME280;10473;42.734;24.258;2023-04-21T07:50:01;91470.97;;;14.43;53.90
20628;BME280;10473;42.734;24.258;2023-04-21T07:52:29;91477.72;;;14.51;53.69
20628;BME280;10473;42.734;24.258;2023-04-21T07:54:57;91480.31;;;14.58;53.83
20628;BME280;10473;42.734;24.258;2023-04-21T07:57:24;91475.69;;;14.62;54.16
20628;BME280;10473;42.734;24.258;2023-04-21T07:59:53;91469.19;;;14.93;53.91
20628;BME280;10473;42.734;24.258;2023-04-21T08:02:21;91458.63;;;15.12;52.05
20628;BME280;10473;42.734;24.258;2023-04-21T08:04:50;91472.75;;;15.39;51.83
20628;BME280;10473;42.734;24.258;2023-04-21T08:07:18;91475.63;;;15.75;51.00
20628;BME280;10473;42.734;24.258;2023-04-21T08:09:46;91469.66;;;16.10;51.78
20628;BME280;10473;42.734;24.258;2023-04-21T08:12:14;91472.88;;;16.44;48.12
20628;BME280;10473;42.734;24.258;2023-04-21T08:14:42;91474.06;;;16.82;48.83
20628;BME280;10473;42.734;24.258;2023-04-21T08:17:11;91468.56;;;17.24;48.18
20628;BME280;10473;42.734;24.258;2023-04-21T08:19:38;91463.84;;;17.48;46.40
20628;BME280;10473;42.734;24.258;2023-04-21T08:22:06;91471.28;;;17.72;46.40
20628;BME280;10473;42.734;24.258;2023-04-21T08:24:34;91469.88;;;17.84;46.65
20628;BME280;10473;42.734;24.258;2023-04-21T08:27:01;91471.69;;;18.03;45.08
20628;BME280;10473;42.734;24.258;2023-04-21T08:29:29;91471.75;;;18.15;45.05
20628;BME280;10473;42.734;24.258;2023-04-21T08:31:57;91466.97;;;18.23;45.81
20628;BME280;10473;42.734;24.258;2023-04-21T08:34:27;91474.84;;;18.14;44.79
20628;BME280;10473;42.734;24.258;2023-04-21T08:36:54;91472.50;;;18.32;45.04
20628;BME280;10473;42.734;24.258;2023-04-21T08:39:22;91467.47;;;18.34;44.72
20628;BME280;10473;42.734;24.258;2023-04-21T08:41:50;91473.81;;;18.56;45.29
20628;BME280;10473;42.734;24.258;2023-04-21T08:44:19;91472.97;;;18.59;44.26
20628;BME280;10473;42.734;24.258;2023-04-21T08:46:48;91480.19;;;18.74;43.28
20628;BME280;10473;42.734;24.258;2023-04-21T08:49:19;91476.13;;;18.54;42.51
20628;BME280;10473;42.734;24.258;2023-04-21T08:51:48;91470.41;;;18.39;42.28
20628;BME280;10473;42.734;24.258;2023-04-21T08:54:16;91480.72;;;18.41;43.95
20628;BME280;10473;42.734;24.258;2023-04-21T08:56:44;91481.81;;;18.43;43.53
20628;BME280;10473;42.734;24.258;2023-04-21T08:59:13;91479.22;;;18.40;43.29
20628;BME280;10473;42.734;24.258;2023-04-21T09:02:07;91478.50;;;18.52;43.23
20628;BME280;10473;42.734;24.258;2023-04-21T09:04:37;91475.16;;;18.48;43.40
20628;BME280;10473;42.734;24.258;2023-04-21T09:07:06;91472.50;;;18.60;42.94
20628;BME280;10473;42.734;24.258;2023-04-21T09:09:52;91473.56;;;18.79;43.69
20628;BME280;10473;42.734;24.258;2023-04-21T09:12:20;91481.38;;;18.73;43.77
20628;BME280;10473;42.734;24.258;2023-04-21T09:14:49;91474.59;;;18.69;43.01
20628;BME280;10473;42.734;24.258;2023-04-21T09:17:17;91482.28;;;18.95;43.34
20628;BME280;10473;42.734;24.258;2023-04-21T09:19:45;91481.09;;;19.25;44.30
20628;BME280;10473;42.734;24.258;2023-04-21T09:22:16;91485.09;;;19.45;43.44
20628;BME280;10473;42.734;24.258;2023-04-21T09:24:45;91473.56;;;19.45;41.88
20628;BME280;10473;42.734;24.258;2023-04-21T09:27:14;91474.97;;;19.37;42.57
20628;BME280;10473;42.734;24.258;2023-04-21T09:29:46;91483.78;;;19.50;41.40
20628;BME280;10473;42.734;24.258;2023-04-21T09:32:17;91466.81;;;19.78;40.64
20628;BME280;10473;42.734;24.258;2023-04-21T09:34:46;91468.41;;;19.88;40.74
20628;BME280;10473;42.734;24.258;2023-04-21T09:41:29;91431.75;;;19.56;40.94
20628;BME280;10473;42.734;24.258;2023-04-21T09:43:56;91472.78;;;20.19;40.30
20628;BME280;10473;42.734;24.258;2023-04-21T09:46:28;91471.44;;;20.36;38.76
20628;BME280;10473;42.734;24.258;2023-04-21T09:48:59;91461.59;;;20.42;39.78
20628;BME280;10473;42.734;24.258;2023-04-21T09:51:29;91462.88;;;20.50;37.78
20628;BME280;10473;42.734;24.258;2023-04-21T09:53:58;91464.81;;;20.50;40.78
20628;BME280;10473;42.734;24.258;2023-04-21T09:56:30;91465.34;;;20.79;39.11
20628;BME280;10473;42.734;24.258;2023-04-21T09:59:00;91459.72;;;20.30;38.02
20628;BME280;10473;42.734;24.258;2023-04-21T10:01:32;91454.53;;;19.64;38.77
20628;BME280;10473;42.734;24.258;2023-04-21T10:04:04;91452.03;;;19.82;39.13
20628;BME280;10473;42.734;24.258;2023-04-21T10:06:34;91452.13;;;20.04;39.40
20628;BME280;10473;42.734;24.258;2023-04-21T10:09:03;91443.66;;;19.93;38.70
20628;BME280;10473;42.734;24.258;2023-04-21T10:11:33;91435.69;;;19.89;37.55
20628;BME280;10473;42.734;24.258;2023-04-21T10:14:02;91437.09;;;19.81;39.20
20628;BME280;10473;42.734;24.258;2023-04-21T10:16:30;91443.03;;;19.64;38.94
20628;BME280;10473;42.734;24.258;2023-04-21T10:18:58;91444.41;;;19.18;40.30
20628;BME280;10473;42.734;24.258;2023-04-21T10:21:26;91427.53;;;19.18;40.57
20628;BME280;10473;42.734;24.258;2023-04-21T10:23:56;91435.00;;;19.26;42.16
20628;BME280;10473;42.734;24.258;2023-04-21T10:26:33;91429.63;;;19.39;40.95
20628;BME280;10473;42.734;24.258;2023-04-21T10:29:03;91419.16;;;19.66;41.74
20628;BME280;10473;42.734;24.258;2023-04-21T10:31:33;91413.25;;;20.05;42.21
20628;BME280;10473;42.734;24.258;2023-04-21T10:34:14;91414.75;;;20.06;39.14
20628;BME280;10473;42.734;24.258;2023-04-21T10:36:48;91417.56;;;20.02;38.16
20628;BME280;10473;42.734;24.258;2023-04-21T10:39:28;91414.69;;;20.09;39.13
20628;BME280;10473;42.734;24.258;2023-04-21T10:42:17;91424.22;;;20.23;39.54
20628;BME280;10473;42.734;24.258;2023-04-21T10:44:50;91424.53;;;20.25;38.51
20628;BME280;10473;42.734;24.258;2023-04-21T10:47:24;91417.59;;;20.36;39.03
20628;BME280;10473;42.734;24.258;2023-04-21T10:49:52;91427.00;;;20.32;39.03
20628;BME280;10473;42.734;24.258;2023-04-21T10:52:21;91426.09;;;20.35;39.81
20628;BME280;10473;42.734;24.258;2023-04-21T10:55:05;91422.59;;;20.25;37.62
20628;BME280;10473;42.734;24.258;2023-04-21T10:57:35;91427.22;;;20.25;38.13
20628;BME280;10473;42.734;24.258;2023-04-21T11:00:05;91430.47;;;20.20;38.83
20628;BME280;10473;42.734;24.258;2023-04-21T11:02:34;91426.28;;;20.06;38.30
20628;BME280;10473;42.734;24.258;2023-04-21T11:05:02;91426.00;;;19.79;38.11
20628;BME280;10473;42.734;24.258;2023-04-21T11:07:30;91425.06;;;19.73;39.38
20628;BME280;10473;42.734;24.258;2023-04-21T11:09:59;91422.78;;;19.97;39.32
20628;BME280;10473;42.734;24.258;2023-04-21T11:12:28;91427.72;;;19.86;39.00
20628;BME280;10473;42.734;24.258;2023-04-21T11:14:57;91410.81;;;20.10;38.05
20628;BME280;10473;42.734;24.258;2023-04-21T11:17:25;91407.69;;;20.12;40.22
20628;BME280;10473;42.734;24.258;2023-04-21T11:19:54;91404.53;;;20.13;39.21
20628;BME280;10473;42.734;24.258;2023-04-21T11:22:24;91400.75;;;19.89;38.42
20628;BME280;10473;42.734;24.258;2023-04-21T11:24:55;91398.09;;;19.98;38.97
20628;BME280;10473;42.734;24.258;2023-04-21T11:27:26;91409.94;;;20.13;40.03
20628;BME280;10473;42.734;24.258;2023-04-21T11:29:54;91413.47;;;20.23;38.77
20628;BME280;10473;42.734;24.258;2023-04-21T11:32:23;91407.44;;;20.19;37.13
20628;BME280;10473;42.734;24.258;2023-04-21T11:34:51;91396.16;;;20.11;38.71
20628;BME280;10473;42.734;24.258;2023-04-21T11:37:23;91403.38;;;20.36;38.88
20628;BME280;10473;42.734;24.258;2023-04-21T11:39:56;91403.94;;;20.09;37.72
20628;BME280;10473;42.734;24.258;2023-04-21T11:42:24;91395.66;;;19.91;37.99
20628;BME280;10473;42.734;24.258;2023-04-21T11:44:53;91390.06;;;19.86;38.50
20628;BME280;10473;42.734;24.258;2023-04-21T11:47:24;91402.88;;;19.94;37.56
20628;BME280;10473;42.734;24.258;2023-04-21T11:49:53;91405.78;;;19.87;37.49
20628;BME280;10473;42.734;24.258;2023-04-21T11:52:23;91403.06;;;19.41;38.07
20628;BME280;10473;42.734;24.258;2023-04-21T11:54:56;91399.63;;;19.28;38.30
20628;BME280;10473;42.734;24.258;2023-04-21T11:57:25;91410.44;;;18.99;38.95
20628;BME280;10473;42.734;24.258;2023-04-21T11:59:57;91407.97;;;19.05;38.77
20628;BME280;10473;42.734;24.258;2023-04-21T12:02:27;91392.41;;;19.00;39.48
20628;BME280;10473;42.734;24.258;2023-04-21T12:05:00;91400.47;;;19.00;39.63
20628;BME280;10473;42.734;24.258;2023-04-21T12:07:29;91405.81;;;19.00;40.86
20628;BME280;10473;42.734;24.258;2023-04-21T12:09:58;91373.97;;;18.48;40.73
20628;BME280;10473;42.734;24.258;2023-04-21T12:12:26;91393.22;;;18.02;42.78
20628;BME280;10473;42.734;24.258;2023-04-21T12:14:53;91389.72;;;18.46;42.21
20628;BME280;10473;42.734;24.258;2023-04-21T12:17:21;91381.28;;;18.60;39.03
20628;BME280;10473;42.734;24.258;2023-04-21T12:19:50;91388.47;;;18.63;39.79
20628;BME280;10473;42.734;24.258;2023-04-21T12:22:18;91389.88;;;18.68;38.90
20628;BME280;10473;42.734;24.258;2023-04-21T12:24:48;91392.25;;;18.66;39.40
20628;BME280;10473;42.734;24.258;2023-04-21T12:27:16;91393.81;;;18.51;41.21
20628;BME280;10473;42.734;24.258;2023-04-21T12:29:44;91396.22;;;18.61;40.72
20628;BME280;10473;42.734;24.258;2023-04-21T12:32:11;91391.00;;;18.42;42.13
20628;BME280;10473;42.734;24.258;2023-04-21T12:34:39;91388.22;;;18.45;42.75
20628;BME280;10473;42.734;24.258;2023-04-21T12:37:10;91395.28;;;18.11;41.80
20628;BME280;10473;42.734;24.258;2023-04-21T12:39:37;91399.13;;;18.10;41.64
20628;BME280;10473;42.734;24.258;2023-04-21T12:42:05;91387.66;;;18.09;41.96
20628;BME280;10473;42.734;24.258;2023-04-21T12:44:32;91381.75;;;17.86;43.36
20628;BME280;10473;42.734;24.258;2023-04-21T12:47:00;91378.72;;;18.00;42.14
20628;BME280;10473;42.734;24.258;2023-04-21T12:49:28;91374.19;;;17.97;41.60
20628;BME280;10473;42.734;24.258;2023-04-21T12:51:56;91383.00;;;17.97;42.56
20628;BME280;10473;42.734;24.258;2023-04-21T12:54:25;91385.91;;;18.03;42.32
20628;BME280;10473;42.734;24.258;2023-04-21T12:56:53;91385.09;;;17.90;41.87
20628;BME280;10473;42.734;24.258;2023-04-21T12:59:20;91392.41;;;17.73;42.02
20628;BME280;10473;42.734;24.258;2023-04-21T13:01:49;91389.41;;;17.71;41.99
20628;BME280;10473;42.734;24.258;2023-04-21T13:04:17;91385.56;;;17.40;43.65
20628;BME280;10473;42.734;24.258;2023-04-21T13:06:44;91391.13;;;17.30;45.59